WetterOnline ( https://www.wetteronline.de )

Wetter aktuell Cuxhaven

Aktuelles Wetter: Heide/Elpersbüttel (5m)

6-stündlich | Neueste Meldungen
Ortszeit Temperatur Wetter
Fr, 08.12. 7:00 0.1° C bedeckt
Fr, 08.12. 1:00 0.3° C bedeckt
Do, 07.12. 19:00 0.3° C Nebel
Do, 07.12. 13:00 -0.1° C Sprühregen
Do, 07.12. 7:00 0.5° C Nebel
Do, 07.12. 1:00 0.0° C Nebel
Mi, 06.12. 19:00 0.0° C Nebel
Mi, 06.12. 13:00 0.2° C leichter Schneefall
Ortszeit Temperatur Wetter
Fr, 08.12. 9:30 0.2° C bewölkt
Fr, 08.12. 9:20 0.2° C bewölkt
Fr, 08.12. 9:10 0.2° C bewölkt
Fr, 08.12. 9:00 0.1° C bewölkt
Fr, 08.12. 8:50 0.1° C bewölkt
Fr, 08.12. 8:40 0.0° C bewölkt
Fr, 08.12. 8:30 0.1° C bewölkt
Fr, 08.12. 8:00 0.1° C bewölkt
Fr, 08.12. 7:30 0.1° C bedeckt
Fr, 08.12. 7:00 0.1° C bedeckt
Fr, 08.12. 6:30 -0.1° C bedeckt
Ortszeit Relative Feuchte Sichtweite
Fr, 08.12. 7:00 88% 14 km
Fr, 08.12. 1:00 100% 3.3 km
Do, 07.12. 19:00 100% 0.2 km
Do, 07.12. 13:00 99% 2.0 km
Do, 07.12. 7:00 100% 0.4 km
Do, 07.12. 1:00 97% 0.7 km
Mi, 06.12. 19:00 100% 100 m
Mi, 06.12. 13:00 94% 1.9 km
Ortszeit Relative Feuchte Sichtweite
Fr, 08.12. 9:30 90% 12 km
Fr, 08.12. 9:20 90% -
Fr, 08.12. 9:10 89% -
Fr, 08.12. 9:00 89% 13 km
Fr, 08.12. 8:50 89% -
Fr, 08.12. 8:40 88% -
Fr, 08.12. 8:30 87% 14 km
Fr, 08.12. 8:00 88% 14 km
Fr, 08.12. 7:30 87% 15 km
Fr, 08.12. 7:00 88% 14 km
Fr, 08.12. 6:30 90% 11 km
Ortszeit Niederschlagsmenge Niederschlagsart
Fr, 08.12. 7:00 0.0 l/m2 in 12 Std. -
Fr, 08.12. 1:00 0.0 l/m2 in 6 Std. -
Do, 07.12. 19:00 0.1 l/m2 in 12 Std. Regen
Do, 07.12. 13:00 0.1 l/m2 in 6 Std. Sprühregen
Do, 07.12. 7:00 0.1 l/m2 in 12 Std. -
Do, 07.12. 1:00 0.1 l/m2 in 6 Std. Schnee, Sprühregen
Mi, 06.12. 19:00 1 l/m2 in 12 Std. Schnee
Mi, 06.12. 13:00 1 l/m2 in 6 Std. Schnee, Regen
Ortszeit Niederschlagsmenge Niederschlagsart
Fr, 08.12. 9:30 0.0 l/m2 in 30 Min -
Fr, 08.12. 9:20 keine Meldung -
Fr, 08.12. 9:10 keine Meldung -
Fr, 08.12. 9:00 0.0 l/m2 in 1 Std. -
Fr, 08.12. 8:50 keine Meldung -
Fr, 08.12. 8:40 keine Meldung -
Fr, 08.12. 8:30 0.0 l/m2 in 30 Min -
Fr, 08.12. 8:00 0.0 l/m2 in 1 Std. -
Fr, 08.12. 7:30 0.0 l/m2 in 30 Min -
Fr, 08.12. 7:00 0.0 l/m2 in 1 Std. -
Fr, 08.12. 6:30 0.0 l/m2 in 30 Min -
Ortszeit Stärke Spitze Richtung
km/h Bft. km/h Grad Sektor
Fr, 08.12. 7:00 7 2 29 100° O
Fr, 08.12. 1:00 4 1 18 120° SO
Do, 07.12. 19:00 7 2 17 100° O
Do, 07.12. 13:00 7 2 13 120° SO
Do, 07.12. 7:00 4 1 11 300° NW
Do, 07.12. 1:00 2 1 9 240° SW
Mi, 06.12. 19:00 4 1 7 330° NW
Mi, 06.12. 13:00 6 1 15 90° O
Ortszeit Stärke Spitze Richtung
km/h Bft. km/h Grad Sektor
Fr, 08.12. 9:30 7 2 28 110° O
Fr, 08.12. 9:20 7 2 - 110° O
Fr, 08.12. 9:10 9 2 - 110° O
Fr, 08.12. 9:00 9 2 28 110° O
Fr, 08.12. 8:50 9 2 - 110° O
Fr, 08.12. 8:40 11 2 - 100° O
Fr, 08.12. 8:30 9 2 28 110° O
Fr, 08.12. 8:00 7 2 22 120° SO
Fr, 08.12. 7:30 7 2 22 110° O
Fr, 08.12. 7:00 7 2 29 100° O
Fr, 08.12. 6:30 14 3 29 90° O
Ortszeit Untergrenze Bedeckung Gattung
total tief tief mittel hoch
Fr, 08.12. 7:00 3000 m 8/8 8/8 - - -
Fr, 08.12. 1:00 90 m 8/8 8/8 - - -
Do, 07.12. 19:00 <30 m 8/8 0/8 - - -
Do, 07.12. 13:00 930 m 7/8 7/8 - - -
Do, 07.12. 7:00 30 m 8/8 8/8 - - -
Do, 07.12. 1:00 390 m 8/8 8/8 - - -
Mi, 06.12. 19:00 <30 m 8/8 0/8 - - -
Mi, 06.12. 13:00 150 m 8/8 8/8 - - -
Ortszeit Bedeckungsgrad in Achtel und Wolkenuntergrenze
Fr, 08.12. 9:30 1(1200m) 3(1470m) 7(1800m)
Fr, 08.12. 9:20 1(1200m) 3(1470m) 7(1800m)
Fr, 08.12. 9:10 7
Fr, 08.12. 9:00 1(1500m) 5(2100m) 7(2700m)
Fr, 08.12. 8:50 1(1500m) 5(2100m) 7(2700m)
Fr, 08.12. 8:40 7
Fr, 08.12. 8:30 7(2700m)
Fr, 08.12. 8:00 2(1800m) 6(2400m) 7(3000m)
Fr, 08.12. 7:30 8(3000m)
Fr, 08.12. 7:00 8(3000m)
Fr, 08.12. 6:30 8(3000m) 8(5100m)
Ortszeit Luftdruck NN (hPa) Tendenz (hPa in 3 Std.)
Fr, 08.12. 7:00 1011 - 1,5
Fr, 08.12. 1:00 1015 - 1,5
Do, 07.12. 19:00 1018 - 0,8
Do, 07.12. 13:00 1019 - 0,2
Do, 07.12. 7:00 1019 + 0,5
Do, 07.12. 1:00 1017 + 1,1
Mi, 06.12. 19:00 1015 + 1,7
Mi, 06.12. 13:00 1011 + 0,5
Ortszeit Luftdruck NN (hPa) Tendenz (hPa in 3 Std.)
Fr, 08.12. 9:30 1010 - 0,6
Fr, 08.12. 9:20 1010 keine Meldung
Fr, 08.12. 9:10 1010 keine Meldung
Fr, 08.12. 9:00 1010 - 0,9
Fr, 08.12. 8:50 1010 keine Meldung
Fr, 08.12. 8:40 1010 keine Meldung
Fr, 08.12. 8:30 1010 - 1,5
Fr, 08.12. 8:00 1011 - 1,1
Fr, 08.12. 7:30 1011 - 1,3
Fr, 08.12. 7:00 1011 - 1,5
Fr, 08.12. 6:30 1011 - 1,6
Ortszeit Schneehöhe (cm)
Fr, 08.12. 7:00 5
Fr, 08.12. 1:00 5
Do, 07.12. 19:00 6
Do, 07.12. 13:00 6
Do, 07.12. 7:00 6
Do, 07.12. 1:00 7
Mi, 06.12. 19:00 7
Mi, 06.12. 13:00 7
Ortszeit Schneehöhe (cm)
Fr, 08.12. 9:30 5
Fr, 08.12. 9:20 5
Fr, 08.12. 9:10 -
Fr, 08.12. 9:00 5
Fr, 08.12. 8:50 5
Fr, 08.12. 8:40 -
Fr, 08.12. 8:30 5
Fr, 08.12. 8:00 5
Fr, 08.12. 7:30 5
Fr, 08.12. 7:00 5
Fr, 08.12. 6:30 5
Link zu dieser Seite / Seite empfehlen

Das Wetter in ...